sensor_id;sensor_type;location;lat;lon;timestamp;temperature;humidity
11280;DHT22;5696;50.928;6.960;2022-09-29T05:01:55;7.20;99.90
11280;DHT22;5696;50.928;6.960;2022-09-29T05:04:21;7.10;99.90
11280;DHT22;5696;50.928;6.960;2022-09-29T05:06:47;7.20;99.90
11280;DHT22;5696;50.928;6.960;2022-09-29T05:09:12;7.20;99.90
11280;DHT22;5696;50.928;6.960;2022-09-29T05:11:38;7.30;99.90
11280;DHT22;5696;50.928;6.960;2022-09-29T05:14:04;7.30;99.90
11280;DHT22;5696;50.928;6.960;2022-09-29T05:16:30;7.30;99.90
11280;DHT22;5696;50.928;6.960;2022-09-29T05:18:55;7.30;99.90
11280;DHT22;5696;50.928;6.960;2022-09-29T05:21:21;7.30;99.90
11280;DHT22;5696;50.928;6.960;2022-09-29T05:23:47;7.30;99.90
11280;DHT22;5696;50.928;6.960;2022-09-29T05:26:13;7.30;99.90
11280;DHT22;5696;50.928;6.960;2022-09-29T05:28:43;7.50;99.90
11280;DHT22;5696;50.928;6.960;2022-09-29T05:31:10;7.50;99.90
11280;DHT22;5696;50.928;6.960;2022-09-29T05:33:36;7.40;99.90
11280;DHT22;5696;50.928;6.960;2022-09-29T05:36:09;7.50;99.90
11280;DHT22;5696;50.928;6.960;2022-09-29T05:38:35;7.40;99.90
11280;DHT22;5696;50.928;6.960;2022-09-29T05:41:07;7.40;99.90
11280;DHT22;5696;50.928;6.960;2022-09-29T05:43:33;7.30;99.90
11280;DHT22;5696;50.928;6.960;2022-09-29T05:46:04;7.20;99.90
11280;DHT22;5696;50.928;6.960;2022-09-29T05:48:29;7.20;99.90
11280;DHT22;5696;50.928;6.960;2022-09-29T05:50:56;7.20;99.90
11280;DHT22;5696;50.928;6.960;2022-09-29T05:53:21;7.20;99.90
11280;DHT22;5696;50.928;6.960;2022-09-29T05:55:47;7.30;99.90
11280;DHT22;5696;50.928;6.960;2022-09-29T05:58:13;7.30;99.90
11280;DHT22;5696;50.928;6.960;2022-09-29T06:00:39;7.40;99.90
11280;DHT22;5696;50.928;6.960;2022-09-29T06:03:04;7.40;99.90
11280;DHT22;5696;50.928;6.960;2022-09-29T06:05:30;7.40;99.90
11280;DHT22;5696;50.928;6.960;2022-09-29T06:07:56;7.30;99.90
11280;DHT22;5696;50.928;6.960;2022-09-29T06:10:21;7.20;99.90
11280;DHT22;5696;50.928;6.960;2022-09-29T06:12:47;7.20;99.90
11280;DHT22;5696;50.928;6.960;2022-09-29T06:15:13;7.30;99.90
11280;DHT22;5696;50.928;6.960;2022-09-29T06:17:38;7.30;99.90
11280;DHT22;5696;50.928;6.960;2022-09-29T06:20:05;7.50;99.90
11280;DHT22;5696;50.928;6.960;2022-09-29T06:22:31;7.50;99.90
11280;DHT22;5696;50.928;6.960;2022-09-29T06:24:57;7.40;99.90
11280;DHT22;5696;50.928;6.960;2022-09-29T06:27:23;7.40;99.90
11280;DHT22;5696;50.928;6.960;2022-09-29T06:29:49;7.60;99.90
11280;DHT22;5696;50.928;6.960;2022-09-29T06:32:15;7.60;99.90
11280;DHT22;5696;50.928;6.960;2022-09-29T06:34:41;7.70;99.90
11280;DHT22;5696;50.928;6.960;2022-09-29T06:37:25;7.60;99.90
11280;DHT22;5696;50.928;6.960;2022-09-29T06:40:03;7.70;99.90
11280;DHT22;5696;50.928;6.960;2022-09-29T06:42:29;7.80;99.90
11280;DHT22;5696;50.928;6.960;2022-09-29T06:44:55;7.90;99.90
11280;DHT22;5696;50.928;6.960;2022-09-29T06:47:21;7.90;99.90
11280;DHT22;5696;50.928;6.960;2022-09-29T06:49:46;7.90;99.90
11280;DHT22;5696;50.928;6.960;2022-09-29T06:52:13;7.90;99.90
11280;DHT22;5696;50.928;6.960;2022-09-29T06:54:38;7.90;99.90
11280;DHT22;5696;50.928;6.960;2022-09-29T06:57:04;8.00;99.90
11280;DHT22;5696;50.928;6.960;2022-09-29T06:59:30;8.10;99.90
11280;DHT22;5696;50.928;6.960;2022-09-29T07:01:55;8.10;99.90
11280;DHT22;5696;50.928;6.960;2022-09-29T07:04:21;8.10;99.90
11280;DHT22;5696;50.928;6.960;2022-09-29T07:06:47;8.10;99.90
11280;DHT22;5696;50.928;6.960;2022-09-29T07:09:13;8.20;99.90
11280;DHT22;5696;50.928;6.960;2022-09-29T07:11:47;8.20;99.90
11280;DHT22;5696;50.928;6.960;2022-09-29T07:14:17;8.20;99.90
11280;DHT22;5696;50.928;6.960;2022-09-29T07:16:43;8.30;99.90
11280;DHT22;5696;50.928;6.960;2022-09-29T07:19:09;8.60;99.90
11280;DHT22;5696;50.928;6.960;2022-09-29T07:21:35;8.60;99.90
11280;DHT22;5696;50.928;6.960;2022-09-29T07:24:01;8.70;99.90
11280;DHT22;5696;50.928;6.960;2022-09-29T07:26:26;8.50;99.90
11280;DHT22;5696;50.928;6.960;2022-09-29T07:28:52;8.50;99.90
11280;DHT22;5696;50.928;6.960;2022-09-29T07:31:20;8.50;99.90
11280;DHT22;5696;50.928;6.960;2022-09-29T07:33:47;8.60;99.90
11280;DHT22;5696;50.928;6.960;2022-09-29T07:36:14;8.80;99.90
11280;DHT22;5696;50.928;6.960;2022-09-29T07:38:40;8.90;99.90
11280;DHT22;5696;50.928;6.960;2022-09-29T07:41:07;9.00;99.90
11280;DHT22;5696;50.928;6.960;2022-09-29T07:43:34;9.00;99.90
11280;DHT22;5696;50.928;6.960;2022-09-29T07:46:00;8.70;99.90
11280;DHT22;5696;50.928;6.960;2022-09-29T07:48:27;9.00;99.90
11280;DHT22;5696;50.928;6.960;2022-09-29T07:51:02;9.20;99.90
11280;DHT22;5696;50.928;6.960;2022-09-29T07:53:29;9.30;99.90
11280;DHT22;5696;50.928;6.960;2022-09-29T07:55:55;9.40;99.90
11280;DHT22;5696;50.928;6.960;2022-09-29T07:58:26;9.40;99.90
11280;DHT22;5696;50.928;6.960;2022-09-29T08:00:55;9.60;99.90
11280;DHT22;5696;50.928;6.960;2022-09-29T08:03:20;9.70;99.90
11280;DHT22;5696;50.928;6.960;2022-09-29T08:05:46;9.50;99.90
11280;DHT22;5696;50.928;6.960;2022-09-29T08:08:12;9.70;99.90
11280;DHT22;5696;50.928;6.960;2022-09-29T08:10:37;9.90;99.90
11280;DHT22;5696;50.928;6.960;2022-09-29T08:13:03;9.90;99.90
11280;DHT22;5696;50.928;6.960;2022-09-29T08:15:28;10.00;99.90
11280;DHT22;5696;50.928;6.960;2022-09-29T08:17:54;10.00;99.90
11280;DHT22;5696;50.928;6.960;2022-09-29T08:20:21;9.90;99.90
11280;DHT22;5696;50.928;6.960;2022-09-29T08:22:47;10.20;99.90
11280;DHT22;5696;50.928;6.960;2022-09-29T08:25:14;10.30;99.90
11280;DHT22;5696;50.928;6.960;2022-09-29T08:27:40;10.40;99.90
11280;DHT22;5696;50.928;6.960;2022-09-29T08:30:06;10.30;99.90
11280;DHT22;5696;50.928;6.960;2022-09-29T08:32:32;10.20;99.90
11280;DHT22;5696;50.928;6.960;2022-09-29T08:34:58;10.10;99.90
11280;DHT22;5696;50.928;6.960;2022-09-29T08:37:23;10.30;99.90
11280;DHT22;5696;50.928;6.960;2022-09-29T08:39:49;10.30;99.90
11280;DHT22;5696;50.928;6.960;2022-09-29T08:42:32;10.40;99.90
11280;DHT22;5696;50.928;6.960;2022-09-29T08:45:07;10.40;99.90
11280;DHT22;5696;50.928;6.960;2022-09-29T08:47:47;10.60;99.90
11280;DHT22;5696;50.928;6.960;2022-09-29T08:50:35;10.90;99.90
11280;DHT22;5696;50.928;6.960;2022-09-29T08:53:13;11.00;99.90
11280;DHT22;5696;50.928;6.960;2022-09-29T08:55:51;10.90;99.90
11280;DHT22;5696;50.928;6.960;2022-09-29T08:58:17;11.20;99.90
11280;DHT22;5696;50.928;6.960;2022-09-29T09:06:20;11.20;99.90
11280;DHT22;5696;50.928;6.960;2022-09-29T09:20:12;11.40;99.90
11280;DHT22;5696;50.928;6.960;2022-09-29T09:22:56;11.40;99.90
11280;DHT22;5696;50.928;6.960;2022-09-29T09:25:42;11.40;99.90
11280;DHT22;5696;50.928;6.960;2022-09-29T09:28:16;11.30;99.90
11280;DHT22;5696;50.928;6.960;2022-09-29T09:30:59;11.40;99.90
11280;DHT22;5696;50.928;6.960;2022-09-29T09:36:13;11.70;99.90
11280;DHT22;5696;50.928;6.960;2022-09-29T09:41:21;11.90;99.90
11280;DHT22;5696;50.928;6.960;2022-09-29T09:44:12;12.20;99.90
11280;DHT22;5696;50.928;6.960;2022-09-29T09:46:49;12.10;99.90
11280;DHT22;5696;50.928;6.960;2022-09-29T09:49:31;12.20;99.90
11280;DHT22;5696;50.928;6.960;2022-09-29T09:54:58;12.50;99.90
11280;DHT22;5696;50.928;6.960;2022-09-29T10:00:15;12.60;99.90
11280;DHT22;5696;50.928;6.960;2022-09-29T10:02:45;12.70;99.90
11280;DHT22;5696;50.928;6.960;2022-09-29T10:05:17;12.90;99.90
11280;DHT22;5696;50.928;6.960;2022-09-29T10:07:43;13.00;99.90
11280;DHT22;5696;50.928;6.960;2022-09-29T10:10:16;13.10;99.90
11280;DHT22;5696;50.928;6.960;2022-09-29T10:12:42;13.10;99.90
11280;DHT22;5696;50.928;6.960;2022-09-29T10:17:55;13.30;99.90
11280;DHT22;5696;50.928;6.960;2022-09-29T10:20:32;13.40;99.90
11280;DHT22;5696;50.928;6.960;2022-09-29T10:25:56;13.50;99.90
11280;DHT22;5696;50.928;6.960;2022-09-29T10:28:23;13.80;99.90
11280;DHT22;5696;50.928;6.960;2022-09-29T10:30:51;13.80;99.90
11280;DHT22;5696;50.928;6.960;2022-09-29T10:33:20;13.80;99.90
11280;DHT22;5696;50.928;6.960;2022-09-29T10:35:50;13.80;99.90
11280;DHT22;5696;50.928;6.960;2022-09-29T10:38:27;14.00;99.90
11280;DHT22;5696;50.928;6.960;2022-09-29T10:40:58;14.10;99.90
11280;DHT22;5696;50.928;6.960;2022-09-29T10:43:37;14.10;99.90
11280;DHT22;5696;50.928;6.960;2022-09-29T10:46:04;14.10;99.90
11280;DHT22;5696;50.928;6.960;2022-09-29T10:48:30;14.20;99.90
11280;DHT22;5696;50.928;6.960;2022-09-29T10:51:04;14.30;99.90
11280;DHT22;5696;50.928;6.960;2022-09-29T10:53:34;14.40;99.90
11280;DHT22;5696;50.928;6.960;2022-09-29T10:56:02;14.50;99.90
11280;DHT22;5696;50.928;6.960;2022-09-29T10:58:35;14.70;99.90
11280;DHT22;5696;50.928;6.960;2022-09-29T11:01:09;14.60;99.90
11280;DHT22;5696;50.928;6.960;2022-09-29T11:04:12;14.70;99.90
11280;DHT22;5696;50.928;6.960;2022-09-29T11:06:33;15.00;99.90
11280;DHT22;5696;50.928;6.960;2022-09-29T11:09:25;15.00;99.90
11280;DHT22;5696;50.928;6.960;2022-09-29T11:11:58;14.90;99.90
11280;DHT22;5696;50.928;6.960;2022-09-29T11:14:30;14.70;99.90
11280;DHT22;5696;50.928;6.960;2022-09-29T11:16:58;14.70;99.90
11280;DHT22;5696;50.928;6.960;2022-09-29T11:19:25;15.00;99.90
11280;DHT22;5696;50.928;6.960;2022-09-29T11:24:57;15.10;99.90
11280;DHT22;5696;50.928;6.960;2022-09-29T11:30:19;15.50;99.90
11280;DHT22;5696;50.928;6.960;2022-09-29T11:33:09;15.60;99.90
11280;DHT22;5696;50.928;6.960;2022-09-29T11:38:47;15.50;99.90
11280;DHT22;5696;50.928;6.960;2022-09-29T11:41:47;15.50;99.90
11280;DHT22;5696;50.928;6.960;2022-09-29T11:58:23;15.60;99.90
11280;DHT22;5696;50.928;6.960;2022-09-29T12:01:38;15.70;99.90
11280;DHT22;5696;50.928;6.960;2022-09-29T12:07:12;16.10;99.90
11280;DHT22;5696;50.928;6.960;2022-09-29T12:13:16;16.30;99.90
11280;DHT22;5696;50.928;6.960;2022-09-29T12:15:35;16.50;99.90
11280;DHT22;5696;50.928;6.960;2022-09-29T12:18:10;16.20;98.90
11280;DHT22;5696;50.928;6.960;2022-09-29T12:20:42;16.30;99.90
11280;DHT22;5696;50.928;6.960;2022-09-29T12:23:11;16.40;99.90
11280;DHT22;5696;50.928;6.960;2022-09-29T12:28:28;16.70;99.50
11280;DHT22;5696;50.928;6.960;2022-09-29T12:30:59;16.70;97.10
11280;DHT22;5696;50.928;6.960;2022-09-29T12:38:58;16.80;94.30
11280;DHT22;5696;50.928;6.960;2022-09-29T12:41:29;16.80;94.80
11280;DHT22;5696;50.928;6.960;2022-09-29T12:44:15;16.70;93.30
11280;DHT22;5696;50.928;6.960;2022-09-29T12:46:54;17.00;94.90
11280;DHT22;5696;50.928;6.960;2022-09-29T12:49:43;16.80;93.40
11280;DHT22;5696;50.928;6.960;2022-09-29T12:52:19;16.60;94.30
11280;DHT22;5696;50.928;6.960;2022-09-29T12:54:53;16.80;96.20
11280;DHT22;5696;50.928;6.960;2022-09-29T12:57:33;16.70;96.80
11280;DHT22;5696;50.928;6.960;2022-09-29T13:00:05;16.60;97.70
11280;DHT22;5696;50.928;6.960;2022-09-29T13:11:19;16.60;98.40
11280;DHT22;5696;50.928;6.960;2022-09-29T13:19:30;16.90;97.80
11280;DHT22;5696;50.928;6.960;2022-09-29T13:32:24;17.20;96.10
11280;DHT22;5696;50.928;6.960;2022-09-29T13:34:54;17.30;95.90
11280;DHT22;5696;50.928;6.960;2022-09-29T13:37:23;17.40;93.90
11280;DHT22;5696;50.928;6.960;2022-09-29T13:40:05;17.60;94.70
11280;DHT22;5696;50.928;6.960;2022-09-29T13:47:53;16.90;95.30
11280;DHT22;5696;50.928;6.960;2022-09-29T13:50:44;16.70;95.20
11280;DHT22;5696;50.928;6.960;2022-09-29T13:58:25;17.00;97.20
11280;DHT22;5696;50.928;6.960;2022-09-29T14:00:53;16.80;97.70
11280;DHT22;5696;50.928;6.960;2022-09-29T14:03:34;16.50;98.30
11280;DHT22;5696;50.928;6.960;2022-09-29T14:06:16;16.50;99.90
11280;DHT22;5696;50.928;6.960;2022-09-29T14:08:47;16.50;99.90
11280;DHT22;5696;50.928;6.960;2022-09-29T14:19:05;16.60;99.90
11280;DHT22;5696;50.928;6.960;2022-09-29T14:21:53;16.70;99.90
11280;DHT22;5696;50.928;6.960;2022-09-29T14:30:12;16.40;99.90
11280;DHT22;5696;50.928;6.960;2022-09-29T14:35:36;16.30;99.90
11280;DHT22;5696;50.928;6.960;2022-09-29T14:38:08;16.20;99.90
11280;DHT22;5696;50.928;6.960;2022-09-29T14:40:37;16.20;99.90
11280;DHT22;5696;50.928;6.960;2022-09-29T14:43:11;16.10;99.90
11280;DHT22;5696;50.928;6.960;2022-09-29T14:49:08;16.00;99.90
11280;DHT22;5696;50.928;6.960;2022-09-29T14:55:05;15.90;99.90
11280;DHT22;5696;50.928;6.960;2022-09-29T15:03:22;15.80;99.90
11280;DHT22;5696;50.928;6.960;2022-09-29T15:06:03;15.80;99.90
11280;DHT22;5696;50.928;6.960;2022-09-29T15:08:30;15.80;99.90
11280;DHT22;5696;50.928;6.960;2022-09-29T15:10:56;15.70;99.90
11280;DHT22;5696;50.928;6.960;2022-09-29T15:13:26;15.70;99.90
11280;DHT22;5696;50.928;6.960;2022-09-29T15:16:28;15.60;99.90
11280;DHT22;5696;50.928;6.960;2022-09-29T15:27:14;15.40;99.90
11280;DHT22;5696;50.928;6.960;2022-09-29T15:29:47;15.50;99.90
11280;DHT22;5696;50.928;6.960;2022-09-29T15:32:23;15.50;99.90
11280;DHT22;5696;50.928;6.960;2022-09-29T15:35:10;15.50;99.90
11280;DHT22;5696;50.928;6.960;2022-09-29T15:40:24;15.80;99.90
11280;DHT22;5696;50.928;6.960;2022-09-29T15:42:51;15.70;99.90
11280;DHT22;5696;50.928;6.960;2022-09-29T15:45:23;15.70;99.90
11280;DHT22;5696;50.928;6.960;2022-09-29T15:48:01;15.70;99.90
11280;DHT22;5696;50.928;6.960;2022-09-29T15:50:28;15.70;99.90
11280;DHT22;5696;50.928;6.960;2022-09-29T15:53:00;15.60;99.90
11280;DHT22;5696;50.928;6.960;2022-09-29T15:55:28;15.60;99.90
11280;DHT22;5696;50.928;6.960;2022-09-29T15:57:54;15.60;99.90
11280;DHT22;5696;50.928;6.960;2022-09-29T16:05:19;15.30;99.90
11280;DHT22;5696;50.928;6.960;2022-09-29T16:07:53;15.10;99.90
11280;DHT22;5696;50.928;6.960;2022-09-29T16:10:26;15.10;99.90
11280;DHT22;5696;50.928;6.960;2022-09-29T16:12:56;15.00;99.90
11280;DHT22;5696;50.928;6.960;2022-09-29T16:15:30;15.00;99.90
11280;DHT22;5696;50.928;6.960;2022-09-29T16:17:59;14.90;99.90
11280;DHT22;5696;50.928;6.960;2022-09-29T16:20:31;14.90;99.90
11280;DHT22;5696;50.928;6.960;2022-09-29T16:23:14;14.80;99.90
11280;DHT22;5696;50.928;6.960;2022-09-29T16:25:41;14.70;99.90
11280;DHT22;5696;50.928;6.960;2022-09-29T16:28:26;14.70;99.90
11280;DHT22;5696;50.928;6.960;2022-09-29T16:31:05;14.60;99.90
11280;DHT22;5696;50.928;6.960;2022-09-29T16:33:33;14.50;99.90
11280;DHT22;5696;50.928;6.960;2022-09-29T16:36:12;14.40;99.90
11280;DHT22;5696;50.928;6.960;2022-09-29T16:38:41;14.30;99.90
11280;DHT22;5696;50.928;6.960;2022-09-29T16:46:53;14.40;99.90
11280;DHT22;5696;50.928;6.960;2022-09-29T16:49:20;14.40;99.90
11280;DHT22;5696;50.928;6.960;2022-09-29T16:51:48;14.20;99.90
11280;DHT22;5696;50.928;6.960;2022-09-29T16:54:26;14.00;99.90
11280;DHT22;5696;50.928;6.960;2022-09-29T16:59:45;13.90;99.90
11280;DHT22;5696;50.928;6.960;2022-09-29T17:02:12;13.80;99.90
11280;DHT22;5696;50.928;6.960;2022-09-29T17:04:38;13.70;99.90
11280;DHT22;5696;50.928;6.960;2022-09-29T17:07:04;13.60;99.90
11280;DHT22;5696;50.928;6.960;2022-09-29T17:09:30;13.50;99.90
11280;DHT22;5696;50.928;6.960;2022-09-29T17:11:56;13.40;99.90
11280;DHT22;5696;50.928;6.960;2022-09-29T17:14:23;13.40;99.90
11280;DHT22;5696;50.928;6.960;2022-09-29T17:16:49;13.30;99.90
11280;DHT22;5696;50.928;6.960;2022-09-29T17:19:17;13.10;99.90
11280;DHT22;5696;50.928;6.960;2022-09-29T17:21:42;13.00;99.90
11280;DHT22;5696;50.928;6.960;2022-09-29T17:24:08;13.00;99.90
11280;DHT22;5696;50.928;6.960;2022-09-29T17:26:42;12.90;99.90
11280;DHT22;5696;50.928;6.960;2022-09-29T17:29:26;12.80;99.90
11280;DHT22;5696;50.928;6.960;2022-09-29T17:31:52;12.70;99.90
11280;DHT22;5696;50.928;6.960;2022-09-29T17:34:17;12.60;99.90
11280;DHT22;5696;50.928;6.960;2022-09-29T17:36:57;12.40;99.90
11280;DHT22;5696;50.928;6.960;2022-09-29T17:39:24;12.40;99.90
11280;DHT22;5696;50.928;6.960;2022-09-29T17:41:50;12.30;99.90
11280;DHT22;5696;50.928;6.960;2022-09-29T17:44:16;12.30;99.90
11280;DHT22;5696;50.928;6.960;2022-09-29T17:46:41;12.30;99.90
11280;DHT22;5696;50.928;6.960;2022-09-29T17:49:11;12.20;99.90
11280;DHT22;5696;50.928;6.960;2022-09-29T17:51:37;12.20;99.90
11280;DHT22;5696;50.928;6.960;2022-09-29T17:54:05;12.10;99.90
11280;DHT22;5696;50.928;6.960;2022-09-29T17:56:34;12.10;99.90
11280;DHT22;5696;50.928;6.960;2022-09-29T17:59:04;12.20;99.90
11280;DHT22;5696;50.928;6.960;2022-09-29T18:01:32;12.20;99.90
11280;DHT22;5696;50.928;6.960;2022-09-29T18:03:59;12.20;99.90
11280;DHT22;5696;50.928;6.960;2022-09-29T18:06:25;12.10;99.90
11280;DHT22;5696;50.928;6.960;2022-09-29T18:08:55;12.00;99.90
11280;DHT22;5696;50.928;6.960;2022-09-29T18:11:23;12.10;99.90
11280;DHT22;5696;50.928;6.960;2022-09-29T18:13:49;12.10;99.90
11280;DHT22;5696;50.928;6.960;2022-09-29T18:16:17;12.10;99.90
11280;DHT22;5696;50.928;6.960;2022-09-29T18:18:43;12.10;99.90
11280;DHT22;5696;50.928;6.960;2022-09-29T18:21:13;12.00;99.90
11280;DHT22;5696;50.928;6.960;2022-09-29T18:23:42;11.90;99.90
11280;DHT22;5696;50.928;6.960;2022-09-29T18:26:09;11.80;99.90
11280;DHT22;5696;50.928;6.960;2022-09-29T18:28:35;11.80;99.90
11280;DHT22;5696;50.928;6.960;2022-09-29T18:31:11;11.70;99.90
11280;DHT22;5696;50.928;6.960;2022-09-29T18:33:37;11.70;99.90
11280;DHT22;5696;50.928;6.960;2022-09-29T18:36:03;11.60;99.90
11280;DHT22;5696;50.928;6.960;2022-09-29T18:38:29;11.60;99.90
11280;DHT22;5696;50.928;6.960;2022-09-29T18:40:55;11.60;99.90
11280;DHT22;5696;50.928;6.960;2022-09-29T18:43:23;11.50;99.90
11280;DHT22;5696;50.928;6.960;2022-09-29T18:45:51;11.40;99.90
11280;DHT22;5696;50.928;6.960;2022-09-29T18:48:17;11.40;99.90
11280;DHT22;5696;50.928;6.960;2022-09-29T18:50:45;11.30;99.90
11280;DHT22;5696;50.928;6.960;2022-09-29T18:53:13;11.30;99.90
11280;DHT22;5696;50.928;6.960;2022-09-29T18:55:40;11.20;99.90
11280;DHT22;5696;50.928;6.960;2022-09-29T18:58:13;11.20;99.90
11280;DHT22;5696;50.928;6.960;2022-09-29T19:00:42;11.10;99.90
11280;DHT22;5696;50.928;6.960;2022-09-29T19:03:09;11.10;99.90
11280;DHT22;5696;50.928;6.960;2022-09-29T19:05:35;11.10;99.90
11280;DHT22;5696;50.928;6.960;2022-09-29T19:08:03;11.10;99.90
11280;DHT22;5696;50.928;6.960;2022-09-29T19:10:31;11.10;99.90
11280;DHT22;5696;50.928;6.960;2022-09-29T19:13:03;11.10;99.90
11280;DHT22;5696;50.928;6.960;2022-09-29T19:15:32;11.10;99.90
11280;DHT22;5696;50.928;6.960;2022-09-29T19:17:59;11.10;99.90
11280;DHT22;5696;50.928;6.960;2022-09-29T19:20:27;11.00;99.90
11280;DHT22;5696;50.928;6.960;2022-09-29T19:22:53;10.90;99.90
11280;DHT22;5696;50.928;6.960;2022-09-29T19:25:22;10.90;99.90
11280;DHT22;5696;50.928;6.960;2022-09-29T19:27:49;10.90;99.90
11280;DHT22;5696;50.928;6.960;2022-09-29T19:30:18;10.90;99.90
11280;DHT22;5696;50.928;6.960;2022-09-29T19:32:45;10.90;99.90
11280;DHT22;5696;50.928;6.960;2022-09-29T19:35:13;10.80;99.90
11280;DHT22;5696;50.928;6.960;2022-09-29T19:37:39;10.80;99.90
11280;DHT22;5696;50.928;6.960;2022-09-29T19:40:08;10.70;99.90
11280;DHT22;5696;50.928;6.960;2022-09-29T19:42:35;10.70;99.90
11280;DHT22;5696;50.928;6.960;2022-09-29T19:45:05;10.70;99.90
11280;DHT22;5696;50.928;6.960;2022-09-29T19:47:33;10.70;99.90
11280;DHT22;5696;50.928;6.960;2022-09-29T19:49:59;10.70;99.90
11280;DHT22;5696;50.928;6.960;2022-09-29T19:52:44;10.70;99.90
11280;DHT22;5696;50.928;6.960;2022-09-29T19:55:09;10.70;99.90
11280;DHT22;5696;50.928;6.960;2022-09-29T19:57:38;10.70;99.90
11280;DHT22;5696;50.928;6.960;2022-09-29T20:00:08;10.60;99.90
11280;DHT22;5696;50.928;6.960;2022-09-29T20:02:34;10.60;99.90
11280;DHT22;5696;50.928;6.960;2022-09-29T20:05:00;10.60;99.90
11280;DHT22;5696;50.928;6.960;2022-09-29T20:07:26;10.60;99.90
11280;DHT22;5696;50.928;6.960;2022-09-29T20:09:52;10.50;99.90
11280;DHT22;5696;50.928;6.960;2022-09-29T20:12:17;10.50;99.90
11280;DHT22;5696;50.928;6.960;2022-09-29T20:14:43;10.40;99.90
11280;DHT22;5696;50.928;6.960;2022-09-29T20:17:09;10.30;99.90
11280;DHT22;5696;50.928;6.960;2022-09-29T20:19:34;10.40;99.90
11280;DHT22;5696;50.928;6.960;2022-09-29T20:22:00;10.30;99.90
11280;DHT22;5696;50.928;6.960;2022-09-29T20:24:25;10.30;99.90
11280;DHT22;5696;50.928;6.960;2022-09-29T20:26:52;10.30;99.90
11280;DHT22;5696;50.928;6.960;2022-09-29T20:29:22;10.30;99.90
11280;DHT22;5696;50.928;6.960;2022-09-29T20:31:48;10.30;99.90
11280;DHT22;5696;50.928;6.960;2022-09-29T20:34:15;10.40;99.90
11280;DHT22;5696;50.928;6.960;2022-09-29T20:36:42;10.40;99.90
11280;DHT22;5696;50.928;6.960;2022-09-29T20:39:09;10.50;99.90
11280;DHT22;5696;50.928;6.960;2022-09-29T20:41:35;10.60;99.90
11280;DHT22;5696;50.928;6.960;2022-09-29T20:44:01;10.70;99.90
11280;DHT22;5696;50.928;6.960;2022-09-29T20:46:27;10.70;99.90
11280;DHT22;5696;50.928;6.960;2022-09-29T20:48:57;10.70;99.90
11280;DHT22;5696;50.928;6.960;2022-09-29T20:51:24;10.60;99.90
11280;DHT22;5696;50.928;6.960;2022-09-29T20:53:55;10.60;99.90
11280;DHT22;5696;50.928;6.960;2022-09-29T20:56:22;10.70;99.90
11280;DHT22;5696;50.928;6.960;2022-09-29T20:58:54;10.80;99.90
11280;DHT22;5696;50.928;6.960;2022-09-29T21:01:25;10.80;99.90
11280;DHT22;5696;50.928;6.960;2022-09-29T21:03:54;10.90;99.90
11280;DHT22;5696;50.928;6.960;2022-09-29T21:06:22;11.00;99.90
11280;DHT22;5696;50.928;6.960;2022-09-29T21:08:49;11.00;99.90
11280;DHT22;5696;50.928;6.960;2022-09-29T21:11:15;10.90;99.90
11280;DHT22;5696;50.928;6.960;2022-09-29T21:13:40;10.80;99.90
11280;DHT22;5696;50.928;6.960;2022-09-29T21:16:07;10.70;99.90
11280;DHT22;5696;50.928;6.960;2022-09-29T21:18:34;10.70;99.90
11280;DHT22;5696;50.928;6.960;2022-09-29T21:21:01;10.60;99.90
11280;DHT22;5696;50.928;6.960;2022-09-29T21:23:30;10.50;99.90
11280;DHT22;5696;50.928;6.960;2022-09-29T21:26:04;10.50;99.90
11280;DHT22;5696;50.928;6.960;2022-09-29T21:28:31;10.40;99.90
11280;DHT22;5696;50.928;6.960;2022-09-29T21:31:05;10.50;99.90
11280;DHT22;5696;50.928;6.960;2022-09-29T21:33:31;10.40;99.90
11280;DHT22;5696;50.928;6.960;2022-09-29T21:35:59;10.50;99.90
11280;DHT22;5696;50.928;6.960;2022-09-29T21:38:26;10.50;99.90
11280;DHT22;5696;50.928;6.960;2022-09-29T21:41:05;10.60;99.90
11280;DHT22;5696;50.928;6.960;2022-09-29T21:43:33;10.70;99.90
11280;DHT22;5696;50.928;6.960;2022-09-29T21:46:03;10.70;99.90
11280;DHT22;5696;50.928;6.960;2022-09-29T21:48:30;10.60;99.90
11280;DHT22;5696;50.928;6.960;2022-09-29T21:51:05;10.50;99.90
11280;DHT22;5696;50.928;6.960;2022-09-29T21:53:32;10.50;99.90
11280;DHT22;5696;50.928;6.960;2022-09-29T21:56:02;10.50;99.90
11280;DHT22;5696;50.928;6.960;2022-09-29T21:58:28;10.50;99.90
11280;DHT22;5696;50.928;6.960;2022-09-29T22:00:54;10.50;99.90
11280;DHT22;5696;50.928;6.960;2022-09-29T22:03:21;10.60;99.90
11280;DHT22;5696;50.928;6.960;2022-09-29T22:05:47;10.60;99.90
11280;DHT22;5696;50.928;6.960;2022-09-29T22:08:13;10.60;99.90
